Аэропорт: Пашковский. Краснодар

ICAO: URKK

METAR:
2018/11/19 10:00
URKK 191000Z 15003MPS 120V190 9999 SCT002 05/03 Q1022 R23L/CLRD70 TEMPO OVC002 RMK QBB080 OBST OBSC QFE763
METAR:
2018/11/19 09:21
TAF URKK 190758Z 1909/2009 08003G08MPS 9999 BKN011 
      TEMPO 1909/1912 3100 BR BKN004 
      BECMG 1916/1918 BKN020CB 
      TEMPO 1918/2006 08005G12MPS 3100 -SHRA BKN015CB